Time;durP1;ratioP1;P1;durP2;ratioP2;P2;SDS_P1;SDS_P2;PMS_P1;PMS_P2;Temp;Humidity;BMP_temperature;BMP_pressure;BME280_temperature;BME280_humidity;BME280_pressure;Samples;Min_cycle;Max_cycle;Signal;HPM_P1;HPM_P2
2024/02/14 00:00:02;;;;;;;;;;;;;;;;;;5089369;28;19928;-73
2024/02/14 00:02:29;;;;;;;;;;;;;;;;;;5079766;28;19982;-72
2024/02/14 00:04:56;;;;;;;;;;;;;;;;;;5088033;28;19928;-73
2024/02/14 00:07:23;;;;;;;;;;;;;;;;;;5083609;28;20066;-72
2024/02/14 00:09:50;;;;;;;;;;;;;;;;;;5087293;28;20038;-72
2024/02/14 00:12:17;;;;;;;;;;;;;;;;;;5088438;28;20345;-73
2024/02/14 00:14:44;;;;;;;;;;;;;;;;;;5086714;28;19958;-73
2024/02/14 00:17:12;;;;;;;;;;;;;;;;;;5089382;28;19928;-73
2024/02/14 00:19:39;;;;;;;;;;;;;;;;;;5088559;28;19975;-72
2024/02/14 00:22:06;;;;;;;;;;;;;;;;;;5084850;28;19943;-73
2024/02/14 00:24:35;;;;;;;;;;;;;;;;;;5088762;28;19928;-73
2024/02/14 00:27:03;;;;;;;;;;;;;;;;;;5088569;28;20353;-72
2024/02/14 00:29:30;;;;;;;;;;;;;;;;;;5076000;28;19928;-72
2024/02/14 00:31:58;;;;;;;;;;;;;;;;;;5084736;28;20026;-73
2024/02/14 00:34:25;;;;;;;;;;;;;;;;;;5086597;28;19971;-72
2024/02/14 00:36:52;;;;;;;;;;;;;;;;;;5084313;28;19928;-72
2024/02/14 00:39:18;;;;;;;;;;;;;;;;;;5090759;28;19974;-72
2024/02/14 00:41:46;;;;;;;;;;;;;;;;;;5080925;28;20026;-73
2024/02/14 00:44:13;;;;;;;;;;;;;;;;;;5082809;28;20389;-73
2024/02/14 00:46:40;;;;;;;;;;;;;;;;;;5086826;28;19928;-73
2024/02/14 00:49:07;;;;;;;;;;;;;;;;;;5085580;28;19971;-74
2024/02/14 00:51:34;;;;;;;;;;;;;;;;;;5087411;28;20019;-74
2024/02/14 00:54:01;;;;;;;;;;;;;;;;;;5086633;28;20035;-74
2024/02/14 00:56:28;;;;;;;;;;;;;;;;;;5088881;28;19928;-75
2024/02/14 00:58:56;;;;;;;;;;;;;;;;;;5087384;28;19959;-74
2024/02/14 01:01:23;;;;;;;;;;;;;;;;;;5084654;28;20295;-74
2024/02/14 01:03:50;;;;;;;;;;;;;;;;;;5086905;28;19975;-74
2024/02/14 01:06:18;;;;;;;;;;;;;;;;;;5088555;28;19942;-74
2024/02/14 01:08:45;;;;;;;;;;;;;;;;;;5088498;28;19974;-74
2024/02/14 01:11:12;;;;;;;;;;;;;;;;;;5088036;28;20446;-75
2024/02/14 01:13:39;;;;;;;;;;;;;;;;;;5082758;28;20023;-75
2024/02/14 01:16:06;;;;;;;;;;;;;;;;;;5088471;28;19936;-73
2024/02/14 01:18:33;;;;;;;;;;;;;;;;;;5087456;28;19979;-74
2024/02/14 01:21:00;;;;;;;;;;;;;;;;;;5086961;28;20281;-74
2024/02/14 01:23:27;;;;;;;;;;;;;;;;;;5081081;28;20011;-73
2024/02/14 01:25:55;;;;;;;;;;;;;;;;;;5084457;28;20022;-75
2024/02/14 01:28:22;;;;;;;;;;;;;;;;;;5088396;28;19973;-74
2024/02/14 01:30:50;;;;;;;;;;;;;;;;;;5084322;28;20387;-75
2024/02/14 01:33:17;;;;;;;;;;;;;;;;;;5078637;28;20387;-74
2024/02/14 01:35:44;;;;;;;;;;;;;;;;;;5078750;28;19928;-74
2024/02/14 01:38:12;;;;;;;;;;;;;;;;;;5092531;28;19934;-73
2024/02/14 01:40:39;;;;;;;;;;;;;;;;;;5092102;28;20034;-72
2024/02/14 01:43:06;;;;;;;;;;;;;;;;;;5082863;28;19968;-73
2024/02/14 01:45:33;;;;;;;;;;;;;;;;;;5078268;28;20356;-72
2024/02/14 01:48:00;;;;;;;;;;;;;;;;;;5091844;28;19928;-72
2024/02/14 01:50:29;;;;;;;;;;;;;;;;;;5091433;28;20310;-73
2024/02/14 01:52:56;;;;;;;;;;;;;;;;;;5080716;28;19939;-73
2024/02/14 01:55:23;;;;;;;;;;;;;;;;;;5086408;28;19961;-73
2024/02/14 01:57:50;;;;;;;;;;;;;;;;;;5082777;28;20026;-73
2024/02/14 02:00:17;;;;;;;;;;;;;;;;;;5088479;28;19932;-73
2024/02/14 02:02:46;;;;;;;;;;;;;;;;;;5088462;28;19928;-74
2024/02/14 02:05:13;;;;;;;;;;;;;;;;;;5090561;28;20388;-73
2024/02/14 02:07:42;;;;;;;;;;;;;;;;;;5090069;28;20050;-73
2024/02/14 02:10:09;;;;;;;;;;;;;;;;;;5081747;28;20437;-73
2024/02/14 02:12:38;;;;;;;;;;;;;;;;;;5082825;28;20441;-74
2024/02/14 02:15:05;;;;;;;;;;;;;;;;;;5083901;28;20023;-73
2024/02/14 02:17:34;;;;;;;;;;;;;;;;;;5080119;28;19978;-73
2024/02/14 02:20:01;;;;;;;;;;;;;;;;;;5091162;28;19934;-73
2024/02/14 02:22:29;;;;;;;;;;;;;;;;;;5091015;28;20401;-73
2024/02/14 02:24:56;;;;;;;;;;;;;;;;;;5091068;28;19935;-74
2024/02/14 02:27:23;;;;;;;;;;;;;;;;;;5082406;28;20484;-75
2024/02/14 02:29:50;;;;;;;;;;;;;;;;;;5085693;28;19980;-75
2024/02/14 02:32:17;;;;;;;;;;;;;;;;;;5071590;28;20375;-74
2024/02/14 02:34:45;;;;;;;;;;;;;;;;;;5091083;28;19928;-73
2024/02/14 02:37:12;;;;;;;;;;;;;;;;;;5090144;28;20014;-72
2024/02/14 02:39:39;;;;;;;;;;;;;;;;;;5079725;28;20452;-73
2024/02/14 02:42:10;;;;;;;;;;;;;;;;;;5089821;28;19935;-73
2024/02/14 02:44:37;;;;;;;;;;;;;;;;;;5081752;28;20387;-72
2024/02/14 02:47:04;;;;;;;;;;;;;;;;;;5080642;28;19974;-73
2024/02/14 02:49:31;;;;;;;;;;;;;;;;;;5089380;28;19928;-73
2024/02/14 02:51:58;;;;;;;;;;;;;;;;;;5090914;28;19928;-72
2024/02/14 02:54:25;;;;;;;;;;;;;;;;;;5090297;28;19928;-73
2024/02/14 02:56:52;;;;;;;;;;;;;;;;;;5089705;28;19967;-74
2024/02/14 02:59:19;;;;;;;;;;;;;;;;;;5085238;28;19968;-74
2024/02/14 03:01:46;;;;;;;;;;;;;;;;;;5086170;28;20014;-72
2024/02/14 03:04:14;;;;;;;;;;;;;;;;;;5090534;28;19928;-73
2024/02/14 03:06:43;;;;;;;;;;;;;;;;;;5086240;28;19935;-72
2024/02/14 03:09:10;;;;;;;;;;;;;;;;;;5090642;28;19932;-73
2024/02/14 03:11:37;;;;;;;;;;;;;;;;;;5088853;28;19992;-72
2024/02/14 03:14:05;;;;;;;;;;;;;;;;;;5082329;28;19928;-72
2024/02/14 03:16:32;;;;;;;;;;;;;;;;;;5084657;28;19943;-72
2024/02/14 03:19:00;;;;;;;;;;;;;;;;;;5081214;28;20318;-72
2024/02/14 03:21:28;;;;;;;;;;;;;;;;;;5082247;28;19932;-72
2024/02/14 03:23:55;;;;;;;;;;;;;;;;;;5081259;28;20383;-72
2024/02/14 03:26:22;;;;;;;;;;;;;;;;;;5087307;28;19928;-72
2024/02/14 03:28:53;;;;;;;;;;;;;;;;;;5090331;28;19928;-73
2024/02/14 03:31:20;;;;;;;;;;;;;;;;;;5088907;28;19931;-73
2024/02/14 03:33:47;;;;;;;;;;;;;;;;;;5084598;28;20426;-72
2024/02/14 03:36:14;;;;;;;;;;;;;;;;;;5085365;28;19973;-73
2024/02/14 03:38:41;;;;;;;;;;;;;;;;;;5086873;28;19970;-72
2024/02/14 03:41:08;;;;;;;;;;;;;;;;;;5089188;28;20466;-72
2024/02/14 03:43:36;;;;;;;;;;;;;;;;;;5080775;28;20016;-71
2024/02/14 03:46:03;;;;;;;;;;;;;;;;;;5077300;28;20019;-72
2024/02/14 03:48:30;;;;;;;;;;;;;;;;;;5087892;28;20470;-72
2024/02/14 03:50:58;;;;;;;;;;;;;;;;;;5088191;28;19932;-71
2024/02/14 03:53:25;;;;;;;;;;;;;;;;;;5089635;28;19935;-72
2024/02/14 03:55:52;;;;;;;;;;;;;;;;;;5070025;28;20474;-72
2024/02/14 03:58:22;;;;;;;;;;;;;;;;;;5077199;28;20359;-72
2024/02/14 04:00:50;;;;;;;;;;;;;;;;;;5078323;28;20816;-72
2024/02/14 04:03:17;;;;;;;;;;;;;;;;;;5080889;28;19982;-72
2024/02/14 04:05:44;;;;;;;;;;;;;;;;;;5080660;28;19928;-71
2024/02/14 04:08:11;;;;;;;;;;;;;;;;;;5074480;28;19968;-72
2024/02/14 04:10:38;;;;;;;;;;;;;;;;;;5082539;28;20360;-72
2024/02/14 04:13:05;;;;;;;;;;;;;;;;;;5083859;28;20368;-72
2024/02/14 04:15:32;;;;;;;;;;;;;;;;;;5083723;28;20023;-72
2024/02/14 04:18:02;;;;;;;;;;;;;;;;;;5083745;28;20267;-72
2024/02/14 04:20:30;;;;;;;;;;;;;;;;;;5088764;28;19954;-73
2024/02/14 04:22:58;;;;;;;;;;;;;;;;;;5082886;28;20009;-72
2024/02/14 04:25:25;;;;;;;;;;;;;;;;;;5080986;28;19928;-73
2024/02/14 04:27:52;;;;;;;;;;;;;;;;;;5086949;28;19928;-73
2024/02/14 04:30:19;;;;;;;;;;;;;;;;;;5089025;28;20027;-73
2024/02/14 04:32:46;;;;;;;;;;;;;;;;;;5079086;28;20381;-72
2024/02/14 04:35:13;;;;;;;;;;;;;;;;;;5084035;28;19964;-73
2024/02/14 04:37:43;;;;;;;;;;;;;;;;;;5078012;28;19934;-72
2024/02/14 04:40:10;;;;;;;;;;;;;;;;;;5089386;28;19928;-73
2024/02/14 04:42:37;;;;;;;;;;;;;;;;;;5087776;28;19928;-72
2024/02/14 04:45:04;;;;;;;;;;;;;;;;;;5088717;28;20446;-72
2024/02/14 04:47:31;;;;;;;;;;;;;;;;;;5085073;28;19993;-73
2024/02/14 04:49:59;;;;;;;;;;;;;;;;;;5088756;28;19928;-73
2024/02/14 04:52:26;;;;;;;;;;;;;;;;;;5077182;28;20389;-73
2024/02/14 04:54:53;;;;;;;;;;;;;;;;;;5088714;28;19928;-72
2024/02/14 04:57:20;;;;;;;;;;;;;;;;;;5087992;28;19989;-72
2024/02/14 04:59:47;;;;;;;;;;;;;;;;;;5088223;28;20027;-72
2024/02/14 05:02:14;;;;;;;;;;;;;;;;;;5076415;28;20014;-73
2024/02/14 05:04:41;;;;;;;;;;;;;;;;;;5089058;28;19973;-73
2024/02/14 05:07:08;;;;;;;;;;;;;;;;;;5083301;28;20027;-72
2024/02/14 05:09:35;;;;;;;;;;;;;;;;;;5084602;28;20377;-72
2024/02/14 05:12:03;;;;;;;;;;;;;;;;;;5078020;28;19978;-71
2024/02/14 05:14:31;;;;;;;;;;;;;;;;;;5089391;28;19935;-72
2024/02/14 05:17:01;;;;;;;;;;;;;;;;;;5080921;28;20019;-72
2024/02/14 05:19:28;;;;;;;;;;;;;;;;;;5091972;28;19977;-73
2024/02/14 05:21:56;;;;;;;;;;;;;;;;;;5092284;28;19935;-73
2024/02/14 05:24:23;;;;;;;;;;;;;;;;;;5092072;28;19934;-73
2024/02/14 05:26:52;;;;;;;;;;;;;;;;;;5089044;28;19975;-72
2024/02/14 05:29:20;;;;;;;;;;;;;;;;;;5087499;28;20467;-72
2024/02/14 05:31:48;;;;;;;;;;;;;;;;;;5086712;28;19942;-71
2024/02/14 05:34:15;;;;;;;;;;;;;;;;;;5087987;28;19928;-72
2024/02/14 05:36:45;;;;;;;;;;;;;;;;;;5090506;28;19935;-71
2024/02/14 05:39:14;;;;;;;;;;;;;;;;;;5094219;28;20359;-72
2024/02/14 05:41:41;;;;;;;;;;;;;;;;;;5079355;28;19945;-71
2024/02/14 05:44:08;;;;;;;;;;;;;;;;;;5083054;28;20098;-71
2024/02/14 05:46:35;;;;;;;;;;;;;;;;;;5076513;28;20387;-71
2024/02/14 05:49:02;;;;;;;;;;;;;;;;;;5100691;28;20039;-71
2024/02/14 05:51:29;;;;;;;;;;;;;;;;;;5081886;28;20370;-71
2024/02/14 05:53:56;;;;;;;;;;;;;;;;;;5084421;28;19928;-71
2024/02/14 05:56:23;;;;;;;;;;;;;;;;;;5080892;28;19951;-71
2024/02/14 05:58:50;;;;;;;;;;;;;;;;;;5091777;28;20006;-71
2024/02/14 06:01:17;;;;;;;;;;;;;;;;;;5072482;28;20019;-72
2024/02/14 06:03:44;;;;;;;;;;;;;;;;;;5088122;28;20014;-73
2024/02/14 06:06:11;;;;;;;;;;;;;;;;;;5090787;28;19928;-71
2024/02/14 06:08:38;;;;;;;;;;;;;;;;;;5092140;28;20298;-72
2024/02/14 06:11:05;;;;;;;;;;;;;;;;;;5087274;28;20011;-70
2024/02/14 06:13:32;;;;;;;;;;;;;;;;;;5080494;28;19932;-71
2024/02/14 06:15:59;;;;;;;;;;;;;;;;;;5095258;28;19932;-70
2024/02/14 06:18:26;;;;;;;;;;;;;;;;;;5091996;28;20387;-70
2024/02/14 06:20:53;;;;;;;;;;;;;;;;;;5088835;28;20011;-70
2024/02/14 06:23:20;;;;;;;;;;;;;;;;;;5087425;28;20048;-70
2024/02/14 06:25:47;;;;;;;;;;;;;;;;;;5084393;28;20436;-71
2024/02/14 06:28:14;;;;;;;;;;;;;;;;;;5094063;28;20016;-71
2024/02/14 06:30:41;;;;;;;;;;;;;;;;;;5092725;28;19928;-70
2024/02/14 06:33:08;;;;;;;;;;;;;;;;;;5078112;28;19971;-71
2024/02/14 06:35:35;;;;;;;;;;;;;;;;;;5090853;28;20015;-71
2024/02/14 06:38:02;;;;;;;;;;;;;;;;;;5084852;28;19997;-71
2024/02/14 06:40:29;;;;;;;;;;;;;;;;;;5085573;28;20023;-71
2024/02/14 06:42:57;;;;;;;;;;;;;;;;;;5091101;28;19935;-70
2024/02/14 06:45:24;;;;;;;;;;;;;;;;;;5085769;28;20387;-70
2024/02/14 06:47:51;;;;;;;;;;;;;;;;;;5077353;28;20031;-71
2024/02/14 06:50:18;;;;;;;;;;;;;;;;;;5084178;28;20589;-70
2024/02/14 06:52:45;;;;;;;;;;;;;;;;;;5089138;28;20022;-71
2024/02/14 06:55:12;;;;;;;;;;;;;;;;;;5091244;28;20019;-71
2024/02/14 06:57:39;;;;;;;;;;;;;;;;;;5084192;28;19983;-71
2024/02/14 07:00:08;;;;;;;;;;;;;;;;;;5084682;28;20027;-71
2024/02/14 07:02:35;;;;;;;;;;;;;;;;;;5090769;28;19982;-71
2024/02/14 07:05:02;;;;;;;;;;;;;;;;;;5085839;28;20310;-71
2024/02/14 07:07:29;;;;;;;;;;;;;;;;;;5079233;28;20015;-70
2024/02/14 07:09:56;;;;;;;;;;;;;;;;;;5090045;28;19928;-70
2024/02/14 07:12:23;;;;;;;;;;;;;;;;;;5089449;28;20019;-71
2024/02/14 07:14:51;;;;;;;;;;;;;;;;;;5089042;28;20011;-71
2024/02/14 07:17:18;;;;;;;;;;;;;;;;;;5079257;28;19929;-71
2024/02/14 07:19:49;;;;;;;;;;;;;;;;;;5086701;28;20023;-71
2024/02/14 07:22:18;;;;;;;;;;;;;;;;;;5090062;28;19928;-70
2024/02/14 07:24:46;;;;;;;;;;;;;;;;;;5089854;28;20451;-70
2024/02/14 07:27:13;;;;;;;;;;;;;;;;;;5086622;28;19928;-71
2024/02/14 07:29:40;;;;;;;;;;;;;;;;;;5088949;28;19932;-71
2024/02/14 07:32:07;;;;;;;;;;;;;;;;;;5088026;28;20455;-71
2024/02/14 07:34:34;;;;;;;;;;;;;;;;;;5089746;28;20034;-71
2024/02/14 07:37:01;;;;;;;;;;;;;;;;;;5076712;28;20027;-72
2024/02/14 07:39:28;;;;;;;;;;;;;;;;;;5076394;28;20371;-71
2024/02/14 07:41:57;;;;;;;;;;;;;;;;;;5082818;28;20059;-71
2024/02/14 07:44:24;;;;;;;;;;;;;;;;;;5074571;28;19929;-71
2024/02/14 07:46:52;;;;;;;;;;;;;;;;;;5080996;28;20360;-71
2024/02/14 07:49:19;;;;;;;;;;;;;;;;;;5088013;28;19932;-71
2024/02/14 07:51:46;;;;;;;;;;;;;;;;;;5088942;28;20409;-71
2024/02/14 07:54:13;;;;;;;;;;;;;;;;;;5085608;28;20019;-72
2024/02/14 07:56:40;;;;;;;;;;;;;;;;;;5088338;28;19928;-71
2024/02/14 07:59:07;;;;;;;;;;;;;;;;;;5088788;28;20027;-71
2024/02/14 08:01:34;;;;;;;;;;;;;;;;;;5079489;28;20042;-71
2024/02/14 08:04:01;;;;;;;;;;;;;;;;;;5079859;28;20027;-69
2024/02/14 08:06:28;;;;;;;;;;;;;;;;;;5077630;28;19932;-69
2024/02/14 08:08:58;;;;;;;;;;;;;;;;;;5086772;28;19970;-69
2024/02/14 08:11:25;;;;;;;;;;;;;;;;;;5081310;28;20364;-68
2024/02/14 08:13:52;;;;;;;;;;;;;;;;;;5086987;28;20050;-68
2024/02/14 08:16:19;;;;;;;;;;;;;;;;;;5086212;28;19935;-70
2024/02/14 08:18:48;;;;;;;;;;;;;;;;;;5077572;28;20023;-69
2024/02/14 08:21:15;;;;;;;;;;;;;;;;;;5085818;28;19936;-69
2024/02/14 08:23:42;;;;;;;;;;;;;;;;;;5083806;28;20032;-71
2024/02/14 08:26:10;;;;;;;;;;;;;;;;;;5084206;28;20018;-70
2024/02/14 08:28:37;;;;;;;;;;;;;;;;;;5077618;28;19932;-70
2024/02/14 08:31:04;;;;;;;;;;;;;;;;;;5084122;28;20322;-69
2024/02/14 08:33:31;;;;;;;;;;;;;;;;;;5085521;28;20422;-70
2024/02/14 08:35:58;;;;;;;;;;;;;;;;;;5078263;28;19928;-69
2024/02/14 08:38:25;;;;;;;;;;;;;;;;;;5077510;28;19936;-69
2024/02/14 08:40:52;;;;;;;;;;;;;;;;;;5081985;28;19985;-70
2024/02/14 08:43:19;;;;;;;;;;;;;;;;;;5082154;28;20019;-70
2024/02/14 08:45:46;;;;;;;;;;;;;;;;;;5088802;28;19928;-72
2024/02/14 08:48:14;;;;;;;;;;;;;;;;;;5085867;28;19928;-71
2024/02/14 08:50:41;;;;;;;;;;;;;;;;;;5084484;28;20014;-71
2024/02/14 08:53:09;;;;;;;;;;;;;;;;;;5077878;28;19967;-72
2024/02/14 08:55:38;;;;;;;;;;;;;;;;;;5089739;28;19971;-71
2024/02/14 08:58:05;;;;;;;;;;;;;;;;;;5087048;28;20330;-69
2024/02/14 09:00:35;;;;;;;;;;;;;;;;;;5083303;28;19928;-68
2024/02/14 09:03:02;;;;;;;;;;;;;;;;;;5091669;28;19928;-69
2024/02/14 09:05:29;;;;;;;;;;;;;;;;;;5083574;28;20015;-69
2024/02/14 09:07:56;;;;;;;;;;;;;;;;;;5086326;28;20455;-68
2024/02/14 09:10:23;;;;;;;;;;;;;;;;;;5081692;28;19930;-68
2024/02/14 09:12:50;;;;;;;;;;;;;;;;;;5082668;28;21296;-67
2024/02/14 09:15:17;;;;;;;;;;;;;;;;;;5085634;28;19928;-68
2024/02/14 09:17:44;;;;;;;;;;;;;;;;;;5089437;28;19927;-69
2024/02/14 09:20:13;;;;;;;;;;;;;;;;;;5085523;28;20454;-69
2024/02/14 09:22:41;;;;;;;;;;;;;;;;;;5084749;28;19935;-69
2024/02/14 09:25:09;;;;;;;;;;;;;;;;;;5087412;28;20291;-69
2024/02/14 09:27:36;;;;;;;;;;;;;;;;;;5087837;28;19935;-69
2024/02/14 09:30:04;;;;;;;;;;;;;;;;;;5086916;28;19970;-69
2024/02/14 09:32:31;;;;;;;;;;;;;;;;;;5089694;28;19957;-69
2024/02/14 09:34:58;;;;;;;;;;;;;;;;;;5087923;28;19934;-69
2024/02/14 09:37:25;;;;;;;;;;;;;;;;;;5090276;28;19928;-69
2024/02/14 09:39:52;;;;;;;;;;;;;;;;;;5083008;28;20019;-69
2024/02/14 09:42:19;;;;;;;;;;;;;;;;;;5081336;28;19932;-68
2024/02/14 09:44:46;;;;;;;;;;;;;;;;;;5086532;28;20306;-69
2024/02/14 09:47:13;;;;;;;;;;;;;;;;;;5089186;28;19928;-69
2024/02/14 09:49:40;;;;;;;;;;;;;;;;;;5076816;28;20011;-69
2024/02/14 09:52:07;;;;;;;;;;;;;;;;;;5074481;28;19960;-69
2024/02/14 09:54:35;;;;;;;;;;;;;;;;;;5090621;28;20368;-68
2024/02/14 09:57:02;;;;;;;;;;;;;;;;;;5079765;28;20020;-69
2024/02/14 09:59:29;;;;;;;;;;;;;;;;;;5088735;28;19932;-71
2024/02/14 10:01:56;;;;;;;;;;;;;;;;;;5075284;28;19989;-69
2024/02/14 10:04:24;;;;;;;;;;;;;;;;;;5083778;28;20382;-69
2024/02/14 10:06:51;;;;;;;;;;;;;;;;;;5081477;28;20414;-69
2024/02/14 10:09:18;;;;;;;;;;;;;;;;;;5078662;28;19929;-69
2024/02/14 10:11:46;;;;;;;;;;;;;;;;;;5084155;28;20403;-68
2024/02/14 10:14:13;;;;;;;;;;;;;;;;;;5075746;28;19936;-68
2024/02/14 10:16:41;;;;;;;;;;;;;;;;;;5075575;28;20019;-68
2024/02/14 10:19:09;;;;;;;;;;;;;;;;;;5072681;28;19971;-68
2024/02/14 10:21:36;;;;;;;;;;;;;;;;;;5078117;28;19928;-68
2024/02/14 10:24:03;;;;;;;;;;;;;;;;;;5082116;28;20370;-68
2024/02/14 10:26:30;;;;;;;;;;;;;;;;;;5077262;28;19939;-68
2024/02/14 10:28:57;;;;;;;;;;;;;;;;;;5078351;28;19935;-69
2024/02/14 10:31:24;;;;;;;;;;;;;;;;;;5084972;28;19928;-68
2024/02/14 10:33:51;;;;;;;;;;;;;;;;;;5081038;28;19928;-69
2024/02/14 10:36:18;;;;;;;;;;;;;;;;;;5084060;28;19928;-68
2024/02/14 10:38:45;;;;;;;;;;;;;;;;;;5078260;28;19964;-68
2024/02/14 10:41:13;;;;;;;;;;;;;;;;;;5088237;28;19928;-68
2024/02/14 10:43:40;;;;;;;;;;;;;;;;;;5082955;28;20378;-69
2024/02/14 10:46:07;;;;;;;;;;;;;;;;;;5082872;28;20058;-68
2024/02/14 10:48:34;;;;;;;;;;;;;;;;;;5080239;28;19928;-69
2024/02/14 10:51:01;;;;;;;;;;;;;;;;;;5081165;28;20013;-68
2024/02/14 10:53:28;;;;;;;;;;;;;;;;;;5080351;28;19928;-69
2024/02/14 10:55:55;;;;;;;;;;;;;;;;;;5083567;28;19993;-68
2024/02/14 10:58:22;;;;;;;;;;;;;;;;;;5078848;28;20036;-69
2024/02/14 11:00:49;;;;;;;;;;;;;;;;;;5086102;28;19929;-69
2024/02/14 11:03:16;;;;;;;;;;;;;;;;;;5077576;28;20030;-69
2024/02/14 11:05:45;;;;;;;;;;;;;;;;;;5072438;28;20029;-69
2024/02/14 11:08:12;;;;;;;;;;;;;;;;;;5082305;28;19934;-69
2024/02/14 11:10:39;;;;;;;;;;;;;;;;;;5087499;28;20031;-68
2024/02/14 11:13:06;;;;;;;;;;;;;;;;;;5080471;28;19929;-68
2024/02/14 11:15:33;;;;;;;;;;;;;;;;;;5081663;28;19928;-69
2024/02/14 11:18:00;;;;;;;;;;;;;;;;;;5086051;28;19932;-68
2024/02/14 11:20:27;;;;;;;;;;;;;;;;;;5080336;28;20014;-68
2024/02/14 11:22:54;;;;;;;;;;;;;;;;;;5076439;28;20031;-68
2024/02/14 11:25:21;;;;;;;;;;;;;;;;;;5082816;28;19928;-68
2024/02/14 11:27:49;;;;;;;;;;;;;;;;;;5082126;28;19950;-68
2024/02/14 11:30:16;;;;;;;;;;;;;;;;;;5081374;28;20048;-68
2024/02/14 11:32:43;;;;;;;;;;;;;;;;;;5069566;28;20378;-68
2024/02/14 11:35:10;;;;;;;;;;;;;;;;;;5080287;28;19932;-68
2024/02/14 11:37:37;;;;;;;;;;;;;;;;;;5080731;28;20020;-68
2024/02/14 11:40:07;;;;;;;;;;;;;;;;;;5076249;28;19928;-68
2024/02/14 11:42:34;;;;;;;;;;;;;;;;;;5074931;28;19928;-68
2024/02/14 11:45:01;;;;;;;;;;;;;;;;;;5078112;28;20019;-69
2024/02/14 11:47:28;;;;;;;;;;;;;;;;;;5076923;28;19935;-69
2024/02/14 11:49:55;;;;;;;;;;;;;;;;;;5071397;28;19928;-69
2024/02/14 11:52:22;;;;;;;;;;;;;;;;;;5076190;28;19929;-69
2024/02/14 11:54:49;;;;;;;;;;;;;;;;;;5079906;28;20018;-69
2024/02/14 11:57:16;;;;;;;;;;;;;;;;;;5087603;28;19932;-69
2024/02/14 11:59:43;;;;;;;;;;;;;;;;;;5073431;28;19935;-69
2024/02/14 12:02:10;;;;;;;;;;;;;;;;;;5081019;28;19948;-68
2024/02/14 12:04:37;;;;;;;;;;;;;;;;;;5075293;28;19932;-69
2024/02/14 12:07:04;;;;;;;;;;;;;;;;;;5074034;28;20079;-69
2024/02/14 12:09:31;;;;;;;;;;;;;;;;;;5074569;28;19939;-69
2024/02/14 12:11:58;;;;;;;;;;;;;;;;;;5074072;28;19928;-72
2024/02/14 12:14:27;;;;;;;;;;;;;;;;;;5075965;28;19951;-69
2024/02/14 12:16:54;;;;;;;;;;;;;;;;;;5074424;28;19932;-69
2024/02/14 12:19:21;;;;;;;;;;;;;;;;;;5076767;28;20379;-69
2024/02/14 12:21:49;;;;;;;;;;;;;;;;;;5073786;28;20030;-69
2024/02/14 12:24:16;;;;;;;;;;;;;;;;;;5078826;28;20015;-69
2024/02/14 12:26:43;;;;;;;;;;;;;;;;;;5078741;28;19935;-69
2024/02/14 12:29:10;;;;;;;;;;;;;;;;;;5084538;28;20133;-67
2024/02/14 12:31:37;;;;;;;;;;;;;;;;;;5079239;28;19947;-67
2024/02/14 12:34:04;;;;;;;;;;;;;;;;;;5076588;28;19932;-67
2024/02/14 12:36:32;;;;;;;;;;;;;;;;;;5084133;28;19996;-68
2024/02/14 12:39:02;;;;;;;;;;;;;;;;;;5074498;28;19932;-67
2024/02/14 12:41:29;;;;;;;;;;;;;;;;;;5083457;28;19928;-67
2024/02/14 12:43:56;;;;;;;;;;;;;;;;;;5075319;28;20478;-67
2024/02/14 12:46:23;;;;;;;;;;;;;;;;;;5076380;28;20069;-68
2024/02/14 12:48:50;;;;;;;;;;;;;;;;;;5083298;28;20018;-68
2024/02/14 12:51:17;;;;;;;;;;;;;;;;;;5077620;28;19928;-68
2024/02/14 12:53:44;;;;;;;;;;;;;;;;;;5081600;28;19929;-69
2024/02/14 12:56:10;;;;;;;;;;;;;;;;;;5074251;28;19980;-69
2024/02/14 12:58:37;;;;;;;;;;;;;;;;;;5083907;28;20020;-68
2024/02/14 13:01:06;;;;;;;;;;;;;;;;;;5074799;28;19934;-68
2024/02/14 13:03:33;;;;;;;;;;;;;;;;;;5076347;28;20432;-68
2024/02/14 13:06:01;;;;;;;;;;;;;;;;;;5080470;28;19928;-69
2024/02/14 13:08:28;;;;;;;;;;;;;;;;;;5075972;28;20383;-68
2024/02/14 13:10:56;;;;;;;;;;;;;;;;;;5077218;28;19935;-68
2024/02/14 13:13:23;;;;;;;;;;;;;;;;;;5081499;28;19974;-69
2024/02/14 13:15:50;;;;;;;;;;;;;;;;;;5074182;28;20320;-68
2024/02/14 13:18:18;;;;;;;;;;;;;;;;;;5078658;28;20003;-69
2024/02/14 13:20:45;;;;;;;;;;;;;;;;;;5076869;28;19928;-69
2024/02/14 13:23:14;;;;;;;;;;;;;;;;;;5074321;28;19935;-69
2024/02/14 13:25:41;;;;;;;;;;;;;;;;;;5077878;28;20403;-68
2024/02/14 13:28:08;;;;;;;;;;;;;;;;;;5083790;28;19928;-69
2024/02/14 13:30:35;;;;;;;;;;;;;;;;;;5084643;28;19934;-68
2024/02/14 13:33:02;;;;;;;;;;;;;;;;;;5085155;28;19934;-69
2024/02/14 13:35:31;;;;;;;;;;;;;;;;;;5080789;28;19928;-69
2024/02/14 13:37:58;;;;;;;;;;;;;;;;;;5083751;28;19935;-69
2024/02/14 13:40:25;;;;;;;;;;;;;;;;;;5091431;28;19935;-69
2024/02/14 13:42:52;;;;;;;;;;;;;;;;;;5081392;28;19928;-69
2024/02/14 13:45:19;;;;;;;;;;;;;;;;;;5082943;28;20470;-69
2024/02/14 13:47:46;;;;;;;;;;;;;;;;;;5091943;28;19927;-69
2024/02/14 13:50:13;;;;;;;;;;;;;;;;;;5084751;28;19928;-70
2024/02/14 13:52:40;;;;;;;;;;;;;;;;;;5088284;28;20348;-69
2024/02/14 13:55:07;;;;;;;;;;;;;;;;;;5087178;28;19928;-68
2024/02/14 13:57:34;;;;;;;;;;;;;;;;;;5074934;28;19936;-69
2024/02/14 14:00:02;;;;;;;;;;;;;;;;;;5082670;28;19932;-68
2024/02/14 14:02:29;;;;;;;;;;;;;;;;;;5090125;28;20006;-70
2024/02/14 14:04:56;;;;;;;;;;;;;;;;;;5081163;28;19950;-68
2024/02/14 14:07:23;;;;;;;;;;;;;;;;;;5089272;28;19928;-67
2024/02/14 14:09:50;;;;;;;;;;;;;;;;;;5086621;28;19935;-67
2024/02/14 14:12:17;;;;;;;;;;;;;;;;;;5091501;28;20015;-68
2024/02/14 14:14:44;;;;;;;;;;;;;;;;;;5080878;28;20632;-67
2024/02/14 14:17:11;;;;;;;;;;;;;;;;;;5084452;28;20015;-67
2024/02/14 14:19:39;;;;;;;;;;;;;;;;;;5083419;28;20034;-68
2024/02/14 14:22:06;;;;;;;;;;;;;;;;;;5086622;28;20494;-67
2024/02/14 14:24:33;;;;;;;;;;;;;;;;;;5088471;28;20036;-68
2024/02/14 14:27:00;;;;;;;;;;;;;;;;;;5089949;28;19932;-67
2024/02/14 14:29:28;;;;;;;;;;;;;;;;;;5080765;28;19935;-68
2024/02/14 14:31:55;;;;;;;;;;;;;;;;;;5088527;28;20351;-67
2024/02/14 14:34:22;;;;;;;;;;;;;;;;;;5075947;28;19938;-68
2024/02/14 14:36:49;;;;;;;;;;;;;;;;;;5069975;28;19988;-69
2024/02/14 14:39:16;;;;;;;;;;;;;;;;;;5078175;28;20035;-69
2024/02/14 14:41:43;;;;;;;;;;;;;;;;;;5090141;28;20018;-68
2024/02/14 14:44:11;;;;;;;;;;;;;;;;;;5082213;28;19967;-69
2024/02/14 14:46:41;;;;;;;;;;;;;;;;;;5079671;28;19935;-69
2024/02/14 14:49:08;;;;;;;;;;;;;;;;;;5082100;28;19928;-69
2024/02/14 14:51:35;;;;;;;;;;;;;;;;;;5075678;28;19934;-67
2024/02/14 14:54:02;;;;;;;;;;;;;;;;;;5088319;28;20401;-68
2024/02/14 14:56:29;;;;;;;;;;;;;;;;;;5087977;28;20018;-68
2024/02/14 14:58:59;;;;;;;;;;;;;;;;;;5079648;28;20027;-68
2024/02/14 15:01:27;;;;;;;;;;;;;;;;;;5070469;28;19974;-68
2024/02/14 15:03:54;;;;;;;;;;;;;;;;;;5073503;28;20403;-68
2024/02/14 15:06:21;;;;;;;;;;;;;;;;;;5078009;28;19932;-69
2024/02/14 15:08:48;;;;;;;;;;;;;;;;;;5083151;28;19931;-69
2024/02/14 15:11:20;;;;;;;;;;;;;;;;;;5077573;28;19948;-69
2024/02/14 15:13:47;;;;;;;;;;;;;;;;;;5073545;28;19942;-68
2024/02/14 15:16:14;;;;;;;;;;;;;;;;;;5080165;28;19989;-68
2024/02/14 15:18:43;;;;;;;;;;;;;;;;;;5077569;28;20248;-67
2024/02/14 15:21:10;;;;;;;;;;;;;;;;;;5080925;28;19928;-69
2024/02/14 15:23:37;;;;;;;;;;;;;;;;;;5082079;28;20372;-67
2024/02/14 15:26:06;;;;;;;;;;;;;;;;;;5078276;28;19928;-68
2024/02/14 15:28:39;;;;;;;;;;;;;;;;;;5074684;28;20353;-67
2024/02/14 15:33:51;;;;;;;;;;;;;;;;;;5083284;28;20478;-69
2024/02/14 15:36:18;;;;;;;;;;;;;;;;;;5082929;28;20027;-68
2024/02/14 15:38:45;;;;;;;;;;;;;;;;;;5076352;28;19928;-68
2024/02/14 15:41:13;;;;;;;;;;;;;;;;;;5072604;28;19932;-68
2024/02/14 15:43:43;;;;;;;;;;;;;;;;;;5075883;28;20000;-68
2024/02/14 15:46:10;;;;;;;;;;;;;;;;;;5079449;28;19928;-68
2024/02/14 15:48:37;;;;;;;;;;;;;;;;;;5079175;28;19975;-68
2024/02/14 15:51:04;;;;;;;;;;;;;;;;;;5071877;28;19932;-68
2024/02/14 15:53:32;;;;;;;;;;;;;;;;;;5075057;28;20541;-69
2024/02/14 15:55:59;;;;;;;;;;;;;;;;;;5075823;28;19927;-67
2024/02/14 15:58:27;;;;;;;;;;;;;;;;;;5080826;28;19932;-66
2024/02/14 16:00:55;;;;;;;;;;;;;;;;;;5080383;28;19932;-66
2024/02/14 16:03:22;;;;;;;;;;;;;;;;;;5089155;28;19932;-67
2024/02/14 16:05:49;;;;;;;;;;;;;;;;;;5086440;28;19928;-67
2024/02/14 16:08:16;;;;;;;;;;;;;;;;;;5087235;28;20011;-68
2024/02/14 16:10:44;;;;;;;;;;;;;;;;;;5083978;28;19959;-66
2024/02/14 16:13:12;;;;;;;;;;;;;;;;;;5076818;28;19932;-66
2024/02/14 16:15:39;;;;;;;;;;;;;;;;;;5078144;28;20015;-66
2024/02/14 16:18:08;;;;;;;;;;;;;;;;;;5078003;28;20024;-68
2024/02/14 16:20:35;;;;;;;;;;;;;;;;;;5083256;28;19985;-69
2024/02/14 16:23:02;;;;;;;;;;;;;;;;;;5087834;28;20362;-68
2024/02/14 16:25:30;;;;;;;;;;;;;;;;;;5077133;28;19967;-68
2024/02/14 16:27:57;;;;;;;;;;;;;;;;;;5079862;28;19928;-69
2024/02/14 16:30:25;;;;;;;;;;;;;;;;;;5077511;28;20010;-69
2024/02/14 16:32:52;;;;;;;;;;;;;;;;;;5073431;28;19932;-67
2024/02/14 16:35:20;;;;;;;;;;;;;;;;;;5074790;28;20015;-68
2024/02/14 16:37:47;;;;;;;;;;;;;;;;;;5077231;28;20410;-68
2024/02/14 16:40:14;;;;;;;;;;;;;;;;;;5078804;28;19928;-68
2024/02/14 16:42:41;;;;;;;;;;;;;;;;;;5084074;28;19928;-68
2024/02/14 16:45:08;;;;;;;;;;;;;;;;;;5082859;28;19929;-68
2024/02/14 16:47:35;;;;;;;;;;;;;;;;;;5083453;28;19928;-68